Time;durP1;ratioP1;P1;durP2;ratioP2;P2;SDS_P1;SDS_P2;PMS_P1;PMS_P2;Temp;Humidity;BMP_temperature;BMP_pressure;BME280_temperature;BME280_humidity;BME280_pressure;Samples;Min_cycle;Max_cycle;Signal;HPM_P1;HPM_P2
2022/12/15 00:40:23;;;;;;;46.38;19.92;;;-1.20;99.90;;;;;;4952300;28;20191;-82
2022/12/15 00:42:49;;;;;;;60.33;25.43;;;-1.20;99.90;;;;;;4970254;28;21837;-83
2022/12/15 00:45:14;;;;;;;51.80;26.17;;;-1.10;99.90;;;;;;4953876;28;20179;-82
2022/12/15 00:47:40;;;;;;;45.70;20.70;;;-1.00;99.90;;;;;;4955622;28;20195;-86
2022/12/15 01:20:17;;;;;;;55.15;23.80;;;-1.00;99.90;;;;;;4961161;28;20183;-83
2022/12/15 01:22:49;;;;;;;50.38;24.40;;;-0.90;99.90;;;;;;4973916;28;20195;-81
2022/12/15 01:25:17;;;;;;;43.53;20.70;;;-1.00;99.90;;;;;;4959210;28;21476;-82
2022/12/15 01:27:43;;;;;;;52.20;24.77;;;-1.00;99.90;;;;;;4944670;28;20219;-83
2022/12/15 01:30:11;;;;;;;50.10;24.00;;;-0.90;99.90;;;;;;4973892;28;20188;-83
2022/12/15 01:32:37;;;;;;;45.45;24.05;;;-0.90;99.90;;;;;;4964515;28;20203;-81
2022/12/15 01:35:06;;;;;;;52.83;23.20;;;-0.90;99.90;;;;;;4962599;28;20208;-83
2022/12/15 01:37:33;;;;;;;50.10;23.75;;;-0.80;99.90;;;;;;4946572;28;20208;-79
2022/12/15 01:42:43;;;;;;;49.35;24.35;;;-1.00;99.90;;;;;;4965618;28;20190;-80
2022/12/15 01:45:49;;;;;;;49.00;22.40;;;-1.10;99.90;;;;;;4978775;28;20192;-82
2022/12/15 01:48:40;;;;;;;49.22;23.15;;;-1.10;99.90;;;;;;4891574;29;21007;-84
2022/12/15 01:51:17;;;;;;;47.58;23.58;;;-1.20;99.90;;;;;;4882108;28;20727;-80
2022/12/15 01:54:17;;;;;;;53.22;24.38;;;-1.30;99.90;;;;;;4948653;28;20187;-83
2022/12/15 01:56:49;;;;;;;55.55;22.60;;;-1.30;99.90;;;;;;4922010;28;20216;-82
2022/12/15 01:59:21;;;;;;;40.42;20.42;;;-1.30;99.90;;;;;;4951235;28;20176;-81
2022/12/15 02:01:47;;;;;;;55.55;22.77;;;-1.30;99.90;;;;;;4931958;28;20255;-82
2022/12/15 02:04:15;;;;;;;59.57;24.17;;;-1.00;99.90;;;;;;4952484;28;20188;-82
2022/12/15 02:06:41;;;;;;;49.15;21.02;;;;;;;;;;4957931;28;20503;-79
2022/12/15 02:09:07;;;;;;;43.85;23.73;;;;;;;;;;4958511;28;20203;-84
2022/12/15 02:11:46;;;;;;;46.63;24.25;;;-0.90;99.90;;;;;;4949860;28;20232;-85
2022/12/15 02:14:23;;;;;;;57.45;26.00;;;-0.80;99.90;;;;;;4958911;28;20633;-79
2022/12/15 02:16:54;;;;;;;53.67;23.08;;;-0.70;99.90;;;;;;4937650;28;20211;-84
2022/12/15 02:19:43;;;;;;;53.13;22.98;;;-0.70;99.90;;;;;;4942830;28;20180;-83
2022/12/15 02:22:24;;;;;;;45.53;19.92;;;-0.70;99.90;;;;;;4942706;28;20188;-85
2022/12/15 02:25:18;;;;;;;53.03;21.98;;;-0.70;99.90;;;;;;4950288;28;22044;-82
2022/12/15 02:28:09;;;;;;;47.00;23.45;;;-0.60;99.90;;;;;;4948685;28;20207;-82
2022/12/15 02:31:48;;;;;;;50.28;22.70;;;-0.70;99.90;;;;;;4954241;28;20180;-82
2022/12/15 02:33:48;;;;;;;48.40;22.35;;;-0.80;99.90;;;;;;4965506;28;20192;-83
2022/12/15 02:36:25;;;;;;;57.90;24.48;;;-0.90;99.90;;;;;;4952577;28;20615;-86
2022/12/15 02:38:51;;;;;;;51.15;23.90;;;-0.90;99.90;;;;;;4954441;28;20314;-81
2022/12/15 02:41:38;;;;;;;51.87;21.83;;;-0.80;99.90;;;;;;4956553;28;20233;-83
2022/12/15 02:44:29;;;;;;;49.30;25.00;;;-0.70;99.90;;;;;;4971534;28;20187;-84
2022/12/15 02:47:10;;;;;;;51.97;23.02;;;-0.60;99.90;;;;;;4959054;28;20306;-85
2022/12/15 02:49:59;;;;;;;51.03;21.40;;;-0.60;99.90;;;;;;4968052;28;20674;-83
2022/12/15 02:52:33;;;;;;;43.75;22.20;;;-0.50;99.90;;;;;;4962266;28;20755;-83
2022/12/15 02:55:30;;;;;;;51.53;24.58;;;-0.60;99.90;;;;;;4959125;28;20175;-82
2022/12/15 02:58:20;;;;;;;60.20;23.85;;;-0.60;99.90;;;;;;4946640;28;20207;-83
2022/12/15 03:00:52;;;;;;;57.40;21.67;;;-0.80;99.90;;;;;;4930364;28;20188;-79
2022/12/15 03:03:20;;;;;;;52.33;21.52;;;-0.90;99.90;;;;;;4972856;28;20184;-83
2022/12/15 03:05:52;;;;;;;48.30;21.70;;;-0.80;99.90;;;;;;4957491;28;20199;-83
2022/12/15 03:08:18;;;;;;;52.53;23.38;;;;;;;;;;4958324;28;20514;-81
2022/12/15 03:10:44;;;;;;;47.47;22.25;;;;;;;;;;4956153;28;20270;-79
2022/12/15 03:13:09;;;;;;;50.58;21.75;;;-1.50;99.90;;;;;;4950998;28;20191;-80
2022/12/15 03:15:35;;;;;;;46.67;23.60;;;-0.60;99.90;;;;;;4953223;28;20231;-83
2022/12/15 03:18:01;;;;;;;53.03;22.90;;;;;;;;;;4963504;28;20184;-82
2022/12/15 03:20:26;;;;;;;51.27;23.97;;;;;;;;;;4939930;28;20179;-82
2022/12/15 03:22:52;;;;;;;45.63;22.27;;;-0.60;99.90;;;;;;4954917;28;20523;-83
2022/12/15 03:25:18;;;;;;;46.47;21.20;;;;;;;;;;4950641;28;20953;-81
2022/12/15 03:27:45;;;;;;;44.97;21.63;;;-0.60;99.90;;;;;;4928590;28;20454;-79
2022/12/15 03:30:11;;;;;;;43.50;20.13;;;-0.60;99.90;;;;;;4950993;28;20450;-83
2022/12/15 03:32:37;;;;;;;53.80;24.17;;;;;;;;;;4953172;28;20406;-84
2022/12/15 03:35:02;;;;;;;47.23;23.40;;;-0.70;99.90;;;;;;4946232;28;20427;-82
2022/12/15 03:37:28;;;;;;;51.50;22.27;;;;;;;;;;4945847;28;20545;-81
2022/12/15 03:39:54;;;;;;;46.17;21.50;;;-0.80;99.90;;;;;;4946218;28;20503;-81
2022/12/15 03:45:05;;;;;;;44.40;22.17;;;-0.80;99.90;;;;;;4955131;28;20889;-78
2022/12/15 03:47:31;;;;;;;52.67;22.20;;;;;;;;;;4950084;28;20234;-82
2022/12/15 03:49:57;;;;;;;49.13;23.90;;;-0.80;99.90;;;;;;4933046;28;20192;-82
2022/12/15 03:52:22;;;;;;;48.37;22.87;;;-0.80;99.90;;;;;;4941851;28;22674;-81
2022/12/15 03:54:48;;;;;;;48.03;22.27;;;;;;;;;;4969823;28;20191;-79
2022/12/15 03:57:14;;;;;;;42.77;21.83;;;;;;;;;;4971792;28;20202;-83
2022/12/15 03:59:40;;;;;;;42.83;21.27;;;-0.70;99.90;;;;;;4951237;28;20527;-83
2022/12/15 04:02:07;;;;;;;43.17;22.53;;;-0.60;99.90;;;;;;4951247;28;20449;-82
2022/12/15 04:04:33;;;;;;;51.42;22.35;;;;;;;;;;4943902;28;20376;-82
2022/12/15 04:06:59;;;;;;;38.63;21.00;;;-0.70;99.90;;;;;;4961032;28;20286;-80
2022/12/15 04:09:25;;;;;;;40.63;22.83;;;;;;;;;;4954982;28;20458;-85
2022/12/15 04:11:50;;;;;;;43.07;19.10;;;;;;;;;;4942714;28;20207;-83
2022/12/15 04:14:16;;;;;;;44.17;22.00;;;-0.70;99.90;;;;;;4953084;28;21959;-82
2022/12/15 04:16:42;;;;;;;43.87;22.90;;;;;;;;;;4956037;28;20459;-82
2022/12/15 04:21:51;;;;;;;51.15;22.92;;;-0.80;99.90;;;;;;4961376;28;20577;-80
2022/12/15 05:32:40;;;;;;;46.05;23.13;;;;;;;;;;4957290;28;20626;-82
2022/12/15 05:35:06;;;;;;;45.63;21.20;;;-0.80;99.90;;;;;;4941436;28;20192;-81
2022/12/15 05:37:32;;;;;;;43.53;23.53;;;-0.90;99.90;;;;;;4976272;28;20545;-80
2022/12/15 05:39:57;;;;;;;47.33;23.07;;;-0.80;99.90;;;;;;4959165;28;20282;-81
2022/12/15 05:42:23;;;;;;;54.83;24.30;;;;;;;;;;4956097;28;20596;-84
2022/12/15 05:44:49;;;;;;;53.10;24.83;;;;;;;;;;4968487;28;20200;-84
2022/12/15 05:47:14;;;;;;;55.77;26.53;;;-0.70;99.90;;;;;;4937557;28;20518;-81
2022/12/15 05:49:41;;;;;;;52.27;27.10;;;-0.80;99.90;;;;;;4950318;28;20446;-84
2022/12/15 05:52:07;;;;;;;43.30;24.70;;;;;;;;;;4960212;28;20220;-81
2022/12/15 05:54:32;;;;;;;56.03;24.20;;;-0.80;99.90;;;;;;4951344;28;20184;-84
2022/12/15 05:56:58;;;;;;;58.27;27.60;;;-0.80;99.90;;;;;;4941205;28;20879;-84
2022/12/15 05:59:24;;;;;;;48.53;24.23;;;;;;;;;;4949209;28;20666;-83
2022/12/15 06:01:50;;;;;;;42.40;23.27;;;;;;;;;;4948388;28;22019;-83
2022/12/15 06:04:15;;;;;;;45.77;22.77;;;-0.90;99.90;;;;;;4946694;28;20602;-82
2022/12/15 06:06:41;;;;;;;59.37;26.07;;;-0.90;99.90;;;;;;4967638;28;20471;-84
2022/12/15 06:09:07;;;;;;;46.87;23.20;;;-0.90;99.90;;;;;;4966713;28;20211;-81
2022/12/15 06:11:32;;;;;;;50.45;23.17;;;-1.00;99.90;;;;;;4931070;28;20399;-79
2022/12/15 06:13:58;;;;;;;52.53;22.83;;;-1.00;99.90;;;;;;4939026;28;20184;-86
2022/12/15 06:16:26;;;;;;;45.10;24.53;;;-0.80;99.90;;;;;;4974829;28;20200;-84
2022/12/15 06:18:54;;;;;;;43.00;21.88;;;-0.90;99.90;;;;;;4945842;28;20198;-85
2022/12/15 06:21:26;;;;;;;56.83;26.95;;;-0.90;99.90;;;;;;4951374;28;20662;-84
2022/12/15 06:23:52;;;;;;;64.90;25.77;;;;;;;;;;4930376;28;20192;-79
2022/12/15 06:26:20;;;;;;;45.40;21.23;;;-0.80;99.90;;;;;;4939041;28;20204;-82
2022/12/15 06:28:47;;;;;;;54.55;23.42;;;-1.00;99.90;;;;;;4955856;28;20204;-83
2022/12/15 06:31:13;;;;;;;50.50;23.75;;;-1.00;99.90;;;;;;4959132;28;20203;-84
2022/12/15 06:33:45;;;;;;;46.28;22.80;;;-1.00;99.90;;;;;;4972385;28;20198;-82
2022/12/15 06:36:13;;;;;;;48.92;23.63;;;-0.90;99.90;;;;;;4976306;28;20262;-80
2022/12/15 06:38:42;;;;;;;61.75;29.27;;;-0.90;99.90;;;;;;4962623;28;20184;-82
2022/12/15 06:41:08;;;;;;;68.55;33.25;;;;;;;;;;4958236;28;20190;-80
2022/12/15 06:43:34;;;;;;;58.22;24.73;;;;;;;;;;4972925;28;20183;-83
2022/12/15 06:46:00;;;;;;;59.78;25.95;;;-0.90;99.90;;;;;;4945996;28;20203;-85
2022/12/15 06:48:27;;;;;;;53.67;23.58;;;;;;;;;;4943193;28;20180;-82
2022/12/15 06:50:52;;;;;;;54.50;23.52;;;-0.90;99.90;;;;;;4958233;28;20188;-84
2022/12/15 06:53:19;;;;;;;51.97;21.33;;;-0.90;99.90;;;;;;4959873;28;20187;-86
2022/12/15 06:55:46;;;;;;;44.30;23.15;;;-1.00;99.90;;;;;;4953708;28;20186;-78
2022/12/15 06:58:12;;;;;;;58.90;22.60;;;;;;;;;;4947472;28;21229;-84
2022/12/15 07:00:40;;;;;;;52.30;23.65;;;-1.00;99.90;;;;;;4959498;28;20710;-86
2022/12/15 07:03:16;;;;;;;47.00;22.88;;;-1.00;99.90;;;;;;4964622;28;20834;-81
2022/12/15 07:05:43;;;;;;;49.95;22.50;;;0.20;99.90;;;;;;4951699;28;20193;-85
2022/12/15 07:08:14;;;;;;;52.55;21.60;;;-1.30;99.90;;;;;;4958625;28;20250;-80
2022/12/15 07:10:41;;;;;;;47.13;21.50;;;-1.30;99.90;;;;;;4955894;28;20188;-85
2022/12/15 07:13:11;;;;;;;53.92;22.08;;;-1.30;99.90;;;;;;4955580;28;20183;-83
2022/12/15 07:15:37;;;;;;;52.75;22.08;;;;;;;;;;4942129;28;20184;-84
2022/12/15 07:18:03;;;;;;;40.70;19.85;;;;;;;;;;4956248;28;20566;-82
2022/12/15 07:20:29;;;;;;;52.53;21.38;;;-1.30;99.90;;;;;;4960616;28;20179;-85
2022/12/15 07:22:55;;;;;;;53.23;22.00;;;;;;;;;;4963502;28;20257;-82
2022/12/15 07:25:21;;;;;;;47.10;21.63;;;;;;;;;;4933498;28;20431;-84
2022/12/15 07:27:46;;;;;;;47.57;22.77;;;-1.10;99.90;;;;;;4940941;28;20455;-83
2022/12/15 07:30:14;;;;;;;58.97;24.77;;;-1.00;99.90;;;;;;4946898;28;20450;-83
2022/12/15 07:32:40;;;;;;;47.17;22.65;;;;;;;;;;4955185;28;20299;-82
2022/12/15 07:35:07;;;;;;;48.95;22.83;;;-0.90;99.90;;;;;;4952392;28;20604;-84
2022/12/15 07:37:33;;;;;;;52.58;23.55;;;;;;;;;;4941059;28;20285;-83
2022/12/15 07:39:59;;;;;;;52.80;24.88;;;;;;;;;;4951991;28;20195;-85
2022/12/15 07:42:27;;;;;;;51.67;24.67;;;-0.90;99.90;;;;;;4948595;28;20184;-83
2022/12/15 07:44:53;;;;;;;48.67;22.73;;;;;;;;;;4935590;28;20184;-81
2022/12/15 07:47:19;;;;;;;49.58;24.55;;;;;;;;;;4939953;28;20208;-83
2022/12/15 07:49:45;;;;;;;38.97;20.67;;;-0.80;99.90;;;;;;4963767;28;20331;-83
2022/12/15 07:52:12;;;;;;;47.90;23.07;;;-0.80;99.90;;;;;;4932808;28;20558;-85
2022/12/15 07:54:38;;;;;;;46.97;22.35;;;;;;;;;;4949514;28;20188;-84
2022/12/15 07:57:06;;;;;;;43.07;22.00;;;;;;;;;;4942673;28;20635;-82
2022/12/15 07:59:32;;;;;;;41.15;22.30;;;;;;;;;;4958036;28;20732;-81
2022/12/15 08:01:59;;;;;;;119.85;49.20;;;-0.80;99.90;;;;;;4953807;28;20220;-81
2022/12/15 08:04:25;;;;;;;119.32;52.83;;;;;;;;;;4972410;28;20214;-83
2022/12/15 08:06:52;;;;;;;102.90;48.20;;;-0.90;99.90;;;;;;4959571;28;20239;-81
2022/12/15 08:09:18;;;;;;;53.60;24.23;;;-0.90;99.90;;;;;;4954832;28;20469;-82
2022/12/15 08:11:44;;;;;;;60.43;33.17;;;;;;;;;;4969822;28;20774;-80
2022/12/15 08:14:10;;;;;;;53.60;24.70;;;-0.70;99.90;;;;;;4966095;28;20164;-80
2022/12/15 08:16:36;;;;;;;51.75;26.15;;;;;;;;;;4962970;28;20477;-83
2022/12/15 08:19:04;;;;;;;50.90;23.58;;;-0.50;99.90;;;;;;4946015;28;20211;-85
2022/12/15 08:21:32;;;;;;;44.50;21.27;;;-0.50;99.90;;;;;;4953144;28;20184;-84
2022/12/15 08:23:59;;;;;;;43.10;22.85;;;-0.40;99.90;;;;;;4946218;28;20179;-82
2022/12/15 08:26:25;;;;;;;50.28;23.85;;;;;;;;;;4937379;28;21853;-83
2022/12/15 08:28:51;;;;;;;44.33;21.80;;;;;;;;;;4944811;28;20568;-83
2022/12/15 08:31:19;;;;;;;45.80;22.85;;;0.10;99.90;;;;;;4961717;28;20215;-83
2022/12/15 08:33:46;;;;;;;49.05;22.15;;;0.20;99.90;;;;;;4960994;28;20183;-83
2022/12/15 08:36:14;;;;;;;66.35;29.77;;;0.20;99.90;;;;;;4947794;28;20900;-83
2022/12/15 08:38:41;;;;;;;48.05;27.88;;;-0.10;99.90;;;;;;4971365;28;20230;-83
2022/12/15 08:41:09;;;;;;;70.13;31.67;;;0.00;99.90;;;;;;4969209;28;20180;-83
2022/12/15 08:43:35;;;;;;;45.22;22.60;;;0.00;99.90;;;;;;4956242;28;20203;-81
2022/12/15 08:46:00;;;;;;;41.72;21.70;;;0.10;99.90;;;;;;4957616;28;20689;-84
2022/12/15 08:48:26;;;;;;;39.17;21.77;;;;;;;;;;4959641;28;20184;-81
2022/12/15 08:50:54;;;;;;;43.13;22.50;;;0.30;99.90;;;;;;4950285;28;20230;-80
2022/12/15 08:53:20;;;;;;;44.13;24.63;;;0.50;99.90;;;;;;4960460;28;20447;-87
2022/12/15 08:55:45;;;;;;;49.30;23.07;;;0.70;99.90;;;;;;4976311;28;20180;-81
2022/12/15 08:58:11;;;;;;;38.50;20.77;;;;;;;;;;4960713;28;20199;-85
2022/12/15 09:00:37;;;;;;;48.83;22.57;;;;;;;;;;4944874;28;20190;-84
2022/12/15 09:03:03;;;;;;;51.80;23.47;;;;;;;;;;4956474;28;20442;-85
2022/12/15 09:05:29;;;;;;;47.97;22.85;;;1.20;99.90;;;;;;4952233;28;20546;-80
2022/12/15 09:07:55;;;;;;;47.13;24.63;;;0.90;99.90;;;;;;4972417;28;20347;-83
2022/12/15 09:10:22;;;;;;;39.38;19.60;;;0.90;99.90;;;;;;4974465;28;20444;-82
2022/12/15 09:12:48;;;;;;;47.47;25.58;;;0.90;99.90;;;;;;4942014;28;20307;-82
2022/12/15 09:15:14;;;;;;;44.63;24.57;;;0.90;99.90;;;;;;4931890;28;20183;-82
2022/12/15 09:17:39;;;;;;;47.53;23.33;;;0.70;99.90;;;;;;4951699;28;20471;-79
2022/12/15 09:20:06;;;;;;;43.53;22.00;;;2.50;99.90;;;;;;4958935;28;20239;-81
2022/12/15 09:22:31;;;;;;;54.80;25.92;;;0.70;99.90;;;;;;4948092;28;20194;-84
2022/12/15 09:24:57;;;;;;;43.43;21.63;;;;;;;;;;4966442;28;20180;-84
2022/12/15 09:27:23;;;;;;;48.13;21.93;;;0.60;99.90;;;;;;4946547;28;20357;-82
2022/12/15 09:29:48;;;;;;;47.00;23.83;;;0.70;99.90;;;;;;4947826;28;21157;-82
2022/12/15 09:32:14;;;;;;;50.70;24.20;;;;;;;;;;4953909;28;20208;-77
2022/12/15 09:34:40;;;;;;;40.30;21.37;;;0.80;99.90;;;;;;4960165;28;20787;-82
2022/12/15 09:37:06;;;;;;;50.92;25.20;;;0.50;99.90;;;;;;4947324;28;20467;-84
2022/12/15 09:39:31;;;;;;;50.70;25.80;;;0.40;99.90;;;;;;4946051;28;22192;-84
2022/12/15 09:42:00;;;;;;;48.30;26.50;;;0.40;99.90;;;;;;4953324;28;20194;-82
2022/12/15 09:44:28;;;;;;;59.50;28.88;;;0.40;99.90;;;;;;4956024;28;20192;-83
2022/12/15 09:47:17;;;;;;;46.67;23.83;;;0.30;99.90;;;;;;4951769;28;20625;-86
2022/12/15 09:49:52;;;;;;;47.45;22.90;;;0.10;99.90;;;;;;4927603;28;20187;-83
2022/12/15 09:52:31;;;;;;;44.60;23.20;;;0.10;99.90;;;;;;4956800;28;20204;-83
2022/12/15 09:54:58;;;;;;;64.90;26.88;;;0.50;99.90;;;;;;4936969;28;20183;-84
2022/12/15 09:57:45;;;;;;;46.95;23.55;;;0.10;99.90;;;;;;4957225;28;22517;-81
2022/12/15 10:00:23;;;;;;;39.60;21.90;;;0.30;99.90;;;;;;4975470;28;20220;-80
2022/12/15 10:03:10;;;;;;;44.75;24.02;;;0.30;99.90;;;;;;4987388;28;20194;-82
2022/12/15 10:05:35;;;;;;;48.50;23.30;;;0.60;99.90;;;;;;4955634;28;20176;-82
2022/12/15 10:08:01;;;;;;;43.93;21.97;;;0.60;99.90;;;;;;4963689;28;20199;-85
2022/12/15 10:10:50;;;;;;;41.57;23.00;;;0.60;99.90;;;;;;4990239;28;20215;-84
2022/12/15 10:13:54;;;;;;;54.35;30.33;;;0.80;99.90;;;;;;4991870;28;20431;-80
2022/12/15 10:16:33;;;;;;;44.90;22.48;;;1.10;99.90;;;;;;4976182;28;20751;-81
2022/12/15 10:19:25;;;;;;;56.45;24.73;;;1.00;99.90;;;;;;4977861;28;20184;-80
2022/12/15 10:21:51;;;;;;;63.50;30.55;;;1.00;99.90;;;;;;4973873;28;20183;-79
2022/12/15 10:24:22;;;;;;;68.83;30.90;;;1.10;99.90;;;;;;4962440;28;20197;-81
2022/12/15 10:26:57;;;;;;;43.38;20.95;;;1.10;99.90;;;;;;4956144;28;20211;-80
2022/12/15 10:29:23;;;;;;;52.13;25.90;;;1.20;99.90;;;;;;4963907;28;20189;-83
2022/12/15 10:32:03;;;;;;;50.97;26.63;;;1.40;99.90;;;;;;4949604;28;20208;-83
2022/12/15 10:34:33;;;;;;;53.08;27.45;;;1.80;99.90;;;;;;4940021;28;20184;-82
2022/12/15 10:37:00;;;;;;;57.85;24.08;;;1.40;99.90;;;;;;4952907;28;20681;-79
2022/12/15 10:39:37;;;;;;;50.65;26.90;;;1.40;99.90;;;;;;4959937;28;20669;-84
2022/12/15 10:42:29;;;;;;;45.20;21.95;;;1.40;99.90;;;;;;4960939;28;20286;-82
2022/12/15 10:44:57;;;;;;;47.33;22.15;;;1.30;99.90;;;;;;4959194;28;20192;-82
2022/12/15 10:47:30;;;;;;;47.88;23.48;;;1.30;99.90;;;;;;4971862;28;20211;-81
2022/12/15 10:50:16;;;;;;;54.03;23.42;;;1.40;99.90;;;;;;4955054;28;20188;-80
2022/12/15 10:52:42;;;;;;;44.80;23.58;;;1.60;99.90;;;;;;4974863;28;21392;-85
2022/12/15 10:55:30;;;;;;;41.70;20.43;;;1.60;99.90;;;;;;4958629;28;20188;-83
2022/12/15 10:58:01;;;;;;;48.03;23.15;;;1.00;99.90;;;;;;4956597;28;20214;-82
2022/12/15 11:00:29;;;;;;;43.78;20.45;;;0.80;99.90;;;;;;4952028;28;20565;-85
2022/12/15 11:02:56;;;;;;;45.35;22.65;;;0.70;99.90;;;;;;4958444;28;20201;-81
2022/12/15 11:05:22;;;;;;;52.97;24.67;;;1.00;99.90;;;;;;4972319;28;20183;-82
2022/12/15 11:07:52;;;;;;;49.30;23.67;;;1.00;99.90;;;;;;4942260;28;20192;-84
2022/12/15 11:10:23;;;;;;;43.72;23.08;;;1.60;99.90;;;;;;4959656;28;20661;-82
2022/12/15 11:13:14;;;;;;;60.65;25.00;;;1.60;99.90;;;;;;4960025;28;20211;-83
2022/12/15 11:15:49;;;;;;;43.72;21.90;;;2.10;99.90;;;;;;4947226;28;20261;-81
2022/12/15 11:18:28;;;;;;;39.85;24.63;;;2.10;99.90;;;;;;4959454;28;20223;-82
2022/12/15 11:21:15;;;;;;;47.35;23.85;;;2.20;99.90;;;;;;4946782;28;20188;-83
2022/12/15 11:23:54;;;;;;;41.13;22.15;;;2.20;99.90;;;;;;4944692;28;20176;-82
2022/12/15 11:26:43;;;;;;;49.85;23.83;;;2.30;99.90;;;;;;4941504;28;20322;-80
2022/12/15 11:29:47;;;;;;;41.55;21.63;;;2.30;99.90;;;;;;4941407;28;20254;-82
2022/12/15 11:32:14;;;;;;;48.72;23.48;;;2.30;99.90;;;;;;4930965;28;20278;-85
2022/12/15 11:34:45;;;;;;;50.38;22.38;;;2.20;99.90;;;;;;4963190;28;20200;-78
2022/12/15 11:37:35;;;;;;;42.92;22.98;;;2.20;99.90;;;;;;4952277;28;20770;-84
2022/12/15 11:40:22;;;;;;;49.33;23.73;;;2.20;99.90;;;;;;4975251;28;20183;-81
2022/12/15 11:42:51;;;;;;;51.95;26.48;;;2.30;99.90;;;;;;4979832;28;20181;-83
2022/12/15 11:46:04;;;;;;;43.53;24.65;;;2.30;99.90;;;;;;4955251;28;20176;-82
2022/12/15 11:48:47;;;;;;;45.45;24.02;;;2.20;99.90;;;;;;4920025;28;20215;-83
2022/12/15 11:51:51;;;;;;;52.13;24.88;;;2.00;99.90;;;;;;4955692;28;20235;-84
2022/12/15 11:54:27;;;;;;;41.75;21.20;;;1.80;99.90;;;;;;4969169;28;20190;-84
2022/12/15 11:57:23;;;;;;;48.92;23.08;;;1.70;99.90;;;;;;4969723;28;21778;-81
2022/12/15 12:00:23;;;;;;;44.75;22.55;;;1.60;99.90;;;;;;4942812;28;20191;-81
2022/12/15 12:03:12;;;;;;;47.40;22.30;;;1.60;99.90;;;;;;4957394;28;20258;-82
2022/12/15 12:05:45;;;;;;;49.47;23.58;;;1.40;99.90;;;;;;4944574;28;20370;-79
2022/12/15 12:08:38;;;;;;;55.33;24.25;;;1.40;99.90;;;;;;4956749;28;20188;-81
2022/12/15 12:11:20;;;;;;;48.92;23.65;;;1.60;99.90;;;;;;4964705;28;20279;-83
2022/12/15 12:14:03;;;;;;;37.33;21.63;;;1.60;99.90;;;;;;4957389;28;20199;-81
2022/12/15 12:17:12;;;;;;;43.03;21.70;;;1.60;99.90;;;;;;4962008;28;21218;-81
2022/12/15 12:19:56;;;;;;;41.63;21.38;;;1.50;99.90;;;;;;4922084;29;20220;-81
2022/12/15 12:22:28;;;;;;;44.28;21.40;;;1.40;99.90;;;;;;4938906;28;20195;-79
2022/12/15 12:25:32;;;;;;;46.20;21.25;;;1.40;99.90;;;;;;4942759;28;20764;-83
2022/12/15 12:28:04;;;;;;;41.45;20.35;;;1.30;99.90;;;;;;4899614;29;20213;-81
2022/12/15 12:30:42;;;;;;;43.75;21.63;;;1.30;99.90;;;;;;4952439;28;20195;-84
2022/12/15 12:33:37;;;;;;;43.55;23.17;;;1.30;99.90;;;;;;4977279;28;20339;-82
2022/12/15 12:36:12;;;;;;;42.08;21.33;;;1.10;99.90;;;;;;4951616;28;20202;-85
2022/12/15 12:38:46;;;;;;;44.67;21.00;;;1.10;99.90;;;;;;4964940;28;20171;-83
2022/12/15 12:41:30;;;;;;;45.13;22.73;;;1.00;99.90;;;;;;4959469;28;20181;-83
2022/12/15 12:44:00;;;;;;;44.72;22.38;;;1.10;99.90;;;;;;4960847;28;21006;-83
2022/12/15 12:46:57;;;;;;;54.05;25.33;;;1.20;99.90;;;;;;4943279;28;20256;-83
2022/12/15 12:49:28;;;;;;;38.33;19.48;;;1.20;99.90;;;;;;4944283;28;20196;-79
2022/12/15 12:51:57;;;;;;;39.25;20.77;;;1.20;99.90;;;;;;4956385;28;20203;-81
2022/12/15 12:54:35;;;;;;;48.22;24.15;;;1.30;99.90;;;;;;4956219;28;20188;-80
2022/12/15 12:57:10;;;;;;;48.25;23.85;;;1.40;99.90;;;;;;4973717;28;21090;-80
2022/12/15 13:00:12;;;;;;;45.85;23.75;;;1.40;99.90;;;;;;4952852;28;20184;-81
2022/12/15 13:02:44;;;;;;;42.45;19.45;;;1.50;99.90;;;;;;4956007;28;20540;-77
2022/12/15 13:05:34;;;;;;;50.35;22.40;;;1.60;99.90;;;;;;4965380;28;20180;-82
2022/12/15 13:08:03;;;;;;;46.50;22.15;;;1.50;99.90;;;;;;4955601;28;20250;-83
2022/12/15 13:10:30;;;;;;;52.38;22.83;;;1.40;99.90;;;;;;4966610;28;20180;-84
2022/12/15 13:12:58;;;;;;;47.40;22.63;;;1.50;99.90;;;;;;4960740;28;20767;-82
2022/12/15 13:15:26;;;;;;;40.15;20.02;;;1.60;99.90;;;;;;4961644;28;20192;-86
2022/12/15 13:18:17;;;;;;;42.53;20.30;;;1.40;99.90;;;;;;4956287;28;20211;-81
2022/12/15 13:20:45;;;;;;;40.25;21.02;;;1.40;99.90;;;;;;4962146;28;20180;-81
2022/12/15 13:23:20;;;;;;;45.95;22.60;;;1.40;99.90;;;;;;4959512;28;20191;-83
2022/12/15 13:25:51;;;;;;;40.70;21.13;;;1.30;99.90;;;;;;4965845;28;20183;-83
2022/12/15 13:28:34;;;;;;;45.00;21.63;;;1.40;99.90;;;;;;4956975;28;20215;-80
2022/12/15 13:31:26;;;;;;;42.47;22.17;;;1.40;99.90;;;;;;4960983;28;20223;-84
2022/12/15 13:33:51;;;;;;;45.50;20.95;;;1.50;99.90;;;;;;4954356;28;20188;-82
2022/12/15 13:36:35;;;;;;;40.63;21.87;;;1.60;99.90;;;;;;4945276;28;20238;-81
2022/12/15 13:39:02;;;;;;;43.83;23.42;;;1.60;99.90;;;;;;4975781;28;20192;-85
2022/12/15 13:41:27;;;;;;;45.00;23.30;;;1.50;99.90;;;;;;4962415;28;20176;-84
2022/12/15 13:43:53;;;;;;;45.13;22.40;;;;;;;;;;4942986;28;20271;-83
2022/12/15 13:46:23;;;;;;;47.38;22.88;;;1.50;99.90;;;;;;4958899;28;20704;-83
2022/12/15 13:49:13;;;;;;;43.75;23.25;;;1.40;99.90;;;;;;4945801;28;20283;-82
2022/12/15 13:51:44;;;;;;;36.25;19.38;;;1.20;99.90;;;;;;4948986;28;20254;-82
2022/12/15 13:54:24;;;;;;;42.40;21.80;;;1.40;99.90;;;;;;4960360;28;20218;-83
2022/12/15 13:57:01;;;;;;;45.85;19.02;;;1.40;99.90;;;;;;4961480;28;20961;-82
2022/12/15 13:59:40;;;;;;;44.50;20.10;;;1.50;99.90;;;;;;4964093;28;20175;-80
2022/12/15 14:02:30;;;;;;;34.22;18.02;;;1.70;99.90;;;;;;4973013;28;20175;-82
2022/12/15 14:05:17;;;;;;;40.88;20.27;;;1.70;99.90;;;;;;4964019;28;20183;-81
2022/12/15 14:07:52;;;;;;;45.35;21.38;;;1.60;99.90;;;;;;4957038;28;20206;-81
2022/12/15 14:10:27;;;;;;;47.78;19.02;;;1.60;99.90;;;;;;4964097;28;20756;-83
2022/12/15 14:12:56;;;;;;;68.28;30.92;;;1.60;99.90;;;;;;4975318;28;20203;-80
2022/12/15 14:15:32;;;;;;;45.70;24.77;;;1.30;99.90;;;;;;4958885;28;20200;-81
2022/12/15 14:18:00;;;;;;;51.47;24.15;;;1.30;99.90;;;;;;4976499;28;20222;-83
2022/12/15 14:20:29;;;;;;;55.83;25.85;;;1.00;99.90;;;;;;4955428;28;20286;-84
2022/12/15 14:22:55;;;;;;;46.83;23.13;;;;;;;;;;4945000;28;20183;-84
2022/12/15 14:25:28;;;;;;;49.63;23.40;;;0.80;99.90;;;;;;4963771;28;20728;-83
2022/12/15 14:27:55;;;;;;;44.70;20.88;;;0.60;99.90;;;;;;4960864;28;20956;-84
2022/12/15 14:30:28;;;;;;;50.17;24.17;;;0.30;99.90;;;;;;4962509;28;20184;-82
2022/12/15 14:33:10;;;;;;;40.78;20.33;;;0.30;99.90;;;;;;4963469;28;20212;-80
2022/12/15 14:35:47;;;;;;;35.88;17.52;;;0.10;99.90;;;;;;4959481;28;20184;-80
2022/12/15 14:38:22;;;;;;;37.05;18.23;;;0.10;99.90;;;;;;4960197;28;20295;-85
2022/12/15 14:40:49;;;;;;;39.80;18.77;;;0.00;99.90;;;;;;4961713;28;20175;-80
2022/12/15 14:43:27;;;;;;;43.08;20.63;;;0.00;99.90;;;;;;4962635;28;20254;-81
2022/12/15 14:46:13;;;;;;;46.58;19.75;;;0.00;99.90;;;;;;4999614;23;20915;-86
2022/12/15 14:48:47;;;;;;;43.85;19.58;;;0.00;99.90;;;;;;4996471;28;20182;-84
2022/12/15 14:51:13;;;;;;;41.30;21.73;;;0.00;99.90;;;;;;4995981;28;20189;-86
2022/12/15 14:53:40;;;;;;;42.03;20.83;;;-0.10;99.90;;;;;;5015585;28;20178;-85
2022/12/15 14:56:29;;;;;;;44.03;22.05;;;-0.10;99.90;;;;;;4990122;28;21036;-84
2022/12/15 14:59:15;;;;;;;43.42;20.75;;;-0.10;99.90;;;;;;4981045;28;20669;-84
2022/12/15 15:01:53;;;;;;;48.47;22.90;;;0.00;99.90;;;;;;4982419;28;20187;-86
2022/12/15 15:04:30;;;;;;;42.10;21.85;;;0.10;99.90;;;;;;4983604;28;20201;-87
2022/12/15 15:06:58;;;;;;;45.30;21.38;;;0.00;99.90;;;;;;4998859;28;20214;-82
2022/12/15 15:09:24;;;;;;;42.80;19.70;;;;;;;;;;4983954;28;20213;-86
2022/12/15 15:11:54;;;;;;;42.40;19.80;;;-0.10;99.90;;;;;;4988898;28;20701;-84
2022/12/15 15:14:27;;;;;;;44.95;19.65;;;-0.20;99.90;;;;;;4982734;28;21876;-83
2022/12/15 15:17:24;;;;;;;38.70;19.75;;;-0.20;99.90;;;;;;4986966;28;20183;-85
2022/12/15 15:20:02;;;;;;;47.78;21.92;;;-0.20;99.90;;;;;;4986001;28;20195;-86
2022/12/15 15:22:40;;;;;;;42.90;20.27;;;-0.10;99.90;;;;;;4994913;28;20191;-85
2022/12/15 15:25:26;;;;;;;41.47;19.77;;;-0.20;99.90;;;;;;4989485;28;20211;-85
2022/12/15 15:27:52;;;;;;;47.70;21.92;;;;;;;;;;4984061;28;20245;-83
2022/12/15 15:30:20;;;;;;;51.50;21.30;;;-0.30;99.90;;;;;;4986626;28;20190;-86
2022/12/15 15:32:54;;;;;;;44.72;20.63;;;-0.50;99.90;;;;;;4992142;28;20206;-85
2022/12/15 15:35:21;;;;;;;46.80;24.52;;;-0.50;99.90;;;;;;4991810;28;20203;-86
2022/12/15 15:37:47;;;;;;;46.33;21.63;;;;;;;;;;5003405;28;20179;-82
2022/12/15 15:40:15;;;;;;;42.67;20.47;;;-0.50;99.90;;;;;;4990748;28;20198;-85
2022/12/15 15:42:44;;;;;;;47.88;21.73;;;;;;;;;;4990667;28;20869;-83